Time;durP1;ratioP1;P1;durP2;ratioP2;P2;SDS_P1;SDS_P2;PMS_P1;PMS_P2;Temp;Humidity;BMP_temperature;BMP_pressure;BME280_temperature;BME280_humidity;BME280_pressure;Samples;Min_cycle;Max_cycle;Signal;HPM_P1;HPM_P2
2024/01/15 00:02:16;;;;;;;106.50;54.50;;;;;;;-142.57;100.00;55527.28;5048023;28;20634;-81
2024/01/15 00:04:42;;;;;;;108.22;54.25;;;;;;;-142.57;100.00;55503.03;5034880;28;20041;-83
2024/01/15 00:07:08;;;;;;;118.68;55.70;;;;;;;-142.57;100.00;55482.81;5026830;28;20040;-83
2024/01/15 00:09:37;;;;;;;101.40;52.80;;;;;;;-142.57;100.00;55490.91;5030946;28;20441;-82
2024/01/15 00:12:03;;;;;;;101.70;53.45;;;;;;;-142.57;100.00;55533.31;5031623;28;20041;-83
2024/01/15 00:14:29;;;;;;;99.53;51.88;;;;;;;-142.57;100.00;55519.19;5032982;28;20067;-83
2024/01/15 00:16:55;;;;;;;103.05;52.33;;;;;;;-142.57;100.00;55494.94;5031183;28;20083;-83
2024/01/15 00:19:23;;;;;;;94.00;49.75;;;;;;;-142.57;100.00;55507.06;5031550;28;20048;-84
2024/01/15 00:21:49;;;;;;;100.63;51.47;;;;;;;-142.57;100.00;55503.03;5031355;28;20040;-82
2024/01/15 00:24:15;;;;;;;106.28;53.65;;;;;;;-142.57;100.00;55515.16;5030587;28;20033;-82
2024/01/15 00:26:40;;;;;;;105.55;54.45;;;;;;;-142.57;100.00;55521.22;5032045;28;20068;-82
2024/01/15 00:29:09;;;;;;;106.75;53.13;;;;;;;-142.57;100.00;55513.13;5031280;28;20051;-83
2024/01/15 00:31:35;;;;;;;105.47;52.33;;;;;;;-142.57;100.00;55496.97;5031464;28;20045;-82
2024/01/15 00:34:00;;;;;;;112.88;55.42;;;;;;;-142.57;100.00;55507.06;5031868;28;20452;-81
2024/01/15 00:36:26;;;;;;;117.30;58.53;;;;;;;-142.57;100.00;55507.06;5029691;28;20629;-83
2024/01/15 00:38:52;;;;;;;123.47;59.50;;;;;;;-142.57;100.00;55507.06;5032945;28;20140;-82
2024/01/15 00:41:21;;;;;;;118.45;56.97;;;;;;;-142.57;100.00;55511.09;5030762;28;20041;-83
2024/01/15 00:43:49;;;;;;;105.15;53.95;;;;;;;-142.57;100.00;55511.09;5027255;28;20045;-82
2024/01/15 00:46:14;;;;;;;101.38;53.47;;;;;;;-142.57;100.00;55507.06;5029368;28;20048;-83
2024/01/15 00:48:40;;;;;;;101.55;51.45;;;;;;;-142.57;100.00;55561.63;5031647;28;20041;-82
2024/01/15 00:51:06;;;;;;;100.35;51.50;;;;;;;-142.57;100.00;55494.94;5029889;28;20072;-83
2024/01/15 00:53:32;;;;;;;115.28;58.28;;;;;;;-142.57;100.00;55470.69;5030637;28;20090;-85
2024/01/15 00:55:58;;;;;;;130.25;61.30;;;;;;;-142.57;100.00;55486.84;5031535;28;20421;-82
2024/01/15 00:58:24;;;;;;;141.23;64.50;;;;;;;-142.57;100.00;55503.03;5030602;28;20037;-84
2024/01/15 01:00:49;;;;;;;132.63;61.63;;;;;;;-142.57;100.00;55525.25;5031685;28;22029;-83
2024/01/15 01:03:15;;;;;;;138.98;62.55;;;;;;;-142.57;100.00;55507.06;5029305;28;20029;-83
2024/01/15 01:05:40;;;;;;;142.65;65.30;;;;;;;-142.57;100.00;55468.69;5031152;28;20041;-82
2024/01/15 01:08:05;;;;;;;141.73;63.00;;;;;;;-142.57;100.00;55527.28;5034353;28;20071;-82
2024/01/15 01:10:31;;;;;;;135.20;62.92;;;;;;;-142.57;100.00;55509.09;5034612;28;20037;-83
2024/01/15 01:12:56;;;;;;;145.98;65.55;;;;;;;-142.57;100.00;55478.78;5035087;28;20031;-84
2024/01/15 01:15:22;;;;;;;144.70;66.05;;;;;;;-142.57;100.00;55490.91;5034712;28;20077;-82
2024/01/15 01:17:48;;;;;;;143.75;67.10;;;;;;;-142.57;100.00;55525.25;5034746;28;20033;-82
2024/01/15 01:20:15;;;;;;;136.65;63.83;;;;;;;-142.57;100.00;55523.22;5033769;28;20072;-83
2024/01/15 01:22:41;;;;;;;141.40;65.45;;;;;;;-142.57;100.00;55521.22;5032196;28;20033;-83
2024/01/15 01:25:06;;;;;;;140.30;64.10;;;;;;;-142.57;100.00;55513.13;5034298;28;20040;-83
2024/01/15 01:27:32;;;;;;;143.50;65.20;;;;;;;-142.57;100.00;55511.09;5034540;28;20061;-80
2024/01/15 01:29:58;;;;;;;140.55;65.93;;;;;;;-142.57;100.00;55498.97;5034311;28;20517;-81
2024/01/15 01:32:23;;;;;;;143.30;66.25;;;;;;;-142.57;100.00;55511.09;5035078;28;21334;-82
2024/01/15 01:34:49;;;;;;;137.65;65.53;;;;;;;-142.57;100.00;55515.16;5034571;28;20124;-82
2024/01/15 01:37:14;;;;;;;143.55;65.32;;;;;;;-142.57;100.00;55519.19;5035297;28;20037;-81
2024/01/15 01:39:43;;;;;;;135.50;64.20;;;;;;;-142.57;100.00;55511.09;5037237;28;20466;-83
2024/01/15 01:42:09;;;;;;;124.55;61.47;;;;;;;-142.57;100.00;55515.16;5034860;28;20524;-83
2024/01/15 01:44:34;;;;;;;129.43;62.33;;;;;;;-142.57;100.00;55513.13;5032172;28;20036;-83
2024/01/15 01:47:00;;;;;;;132.40;61.38;;;;;;;-142.57;100.00;55515.16;5033789;28;20029;-84
2024/01/15 01:49:29;;;;;;;122.90;60.13;;;;;;;-142.57;100.00;55486.84;5034587;28;20032;-82
2024/01/15 01:51:58;;;;;;;122.32;60.25;;;;;;;-142.57;100.00;55523.22;5033671;28;20041;-82
2024/01/15 01:54:25;;;;;;;131.48;62.15;;;;;;;-142.57;100.00;55503.03;5033197;28;20051;-80
2024/01/15 01:56:51;;;;;;;138.23;61.13;;;;;;;-142.57;100.00;55529.28;5033309;28;20037;-80
2024/01/15 01:59:17;;;;;;;141.07;62.33;;;;;;;-142.57;100.00;55509.09;5032856;28;20037;-81
2024/01/15 02:01:44;;;;;;;141.95;62.25;;;;;;;-142.57;100.00;55494.94;5034879;28;20048;-81
2024/01/15 02:04:10;;;;;;;137.30;61.05;;;;;;;-142.57;100.00;55478.78;5033317;28;20033;-83
2024/01/15 02:06:36;;;;;;;137.88;61.03;;;;;;;-142.57;100.00;55478.78;5033636;28;20045;-82
2024/01/15 02:09:02;;;;;;;133.93;60.03;;;;;;;-142.57;100.00;55503.03;5034818;28;20032;-82
2024/01/15 02:11:28;;;;;;;130.30;59.17;;;;;;;-142.57;100.00;55484.84;5036282;28;20094;-81
2024/01/15 02:13:53;;;;;;;133.73;62.75;;;;;;;-142.57;100.00;55466.66;5036651;28;20041;-81
2024/01/15 02:16:20;;;;;;;126.07;59.03;;;;;;;-142.57;100.00;55478.78;5037536;28;20110;-81
2024/01/15 02:18:46;;;;;;;127.60;57.88;;;;;;;-142.57;100.00;55492.91;5047339;28;20193;-81
2024/01/15 02:21:12;;;;;;;123.13;58.60;;;;;;;-142.57;100.00;55523.22;5056082;28;20033;-82
2024/01/15 02:23:38;;;;;;;125.05;58.70;;;;;;;-142.57;100.00;55517.16;5059815;28;20029;-80
2024/01/15 02:26:10;;;;;;;132.27;59.30;;;;;;;-142.57;100.00;55507.06;5036995;28;20319;-81
2024/01/15 02:28:36;;;;;;;101.20;44.93;;;;;;;-142.57;100.00;55501.00;5033539;28;20127;-81
2024/01/15 02:31:01;;;;;;;128.32;57.05;;;;;;;-142.57;100.00;55507.06;5032759;28;20045;-81
2024/01/15 02:33:27;;;;;;;126.78;58.38;;;;;;;-142.57;100.00;55490.91;5034037;28;20117;-82
2024/01/15 02:35:52;;;;;;;136.05;60.17;;;;;;;-142.57;100.00;55482.81;5033313;28;20029;-82
2024/01/15 02:38:18;;;;;;;137.65;59.05;;;;;;;-142.57;100.00;55531.31;5034776;28;20043;-82
2024/01/15 02:40:47;;;;;;;138.75;58.55;;;;;;;-142.57;100.00;55474.72;5034047;28;20486;-82
2024/01/15 02:43:13;;;;;;;145.65;59.92;;;;;;;-142.57;100.00;55476.75;5034283;28;20106;-81
2024/01/15 02:45:39;;;;;;;140.55;61.22;;;;;;;-142.57;100.00;55462.63;5033246;28;20063;-81
2024/01/15 02:48:05;;;;;;;140.30;60.40;;;;;;;-142.57;100.00;55446.44;5033252;28;20040;-82
2024/01/15 02:50:30;;;;;;;146.18;61.75;;;;;;;-142.57;100.00;55464.63;5032007;28;20036;-82
2024/01/15 02:52:56;;;;;;;141.27;60.22;;;;;;;-142.57;100.00;55434.31;5033654;28;20029;-83
2024/01/15 02:55:21;;;;;;;138.95;58.88;;;;;;;-142.57;100.00;55535.34;5033711;28;20029;-82
2024/01/15 02:57:47;;;;;;;137.05;59.92;;;;;;;-142.57;100.00;55498.97;5031859;28;20469;-83
2024/01/15 03:00:13;;;;;;;131.35;58.00;;;;;;;-142.57;100.00;55466.66;5032856;28;20043;-82
2024/01/15 03:02:40;;;;;;;138.90;61.35;;;;;;;-142.57;100.00;55434.31;5033067;28;20378;-81
2024/01/15 03:05:07;;;;;;;141.82;60.67;;;;;;;-142.57;100.00;55440.38;5033616;28;20040;-84
2024/01/15 03:07:33;;;;;;;132.35;57.95;;;;;;;-142.57;100.00;55494.94;5030783;28;20044;-82
2024/01/15 03:09:58;;;;;;;144.88;62.38;;;;;;;-142.57;100.00;55456.56;5031014;28;20028;-83
2024/01/15 03:12:24;;;;;;;135.10;59.67;;;;;;;-142.57;100.00;55462.63;5032682;28;21343;-82
2024/01/15 03:14:52;;;;;;;142.20;61.15;;;;;;;-142.57;100.00;55450.50;5031358;28;20044;-81
2024/01/15 03:17:18;;;;;;;133.57;59.30;;;;;;;-142.57;100.00;55482.81;5032437;28;20029;-81
2024/01/15 03:19:43;;;;;;;138.25;61.10;;;;;;;-142.57;100.00;55474.72;5033037;28;20351;-82
2024/01/15 03:22:09;;;;;;;132.65;60.22;;;;;;;-142.57;100.00;55480.78;5030965;28;20772;-82
2024/01/15 03:24:35;;;;;;;132.63;60.17;;;;;;;-142.57;100.00;55454.53;5032115;28;20033;-82
2024/01/15 03:27:01;;;;;;;140.57;61.88;;;;;;;-142.57;100.00;55486.84;5030128;28;20506;-83
2024/01/15 03:29:26;;;;;;;132.68;59.08;;;;;;;-142.57;100.00;55488.88;5031139;28;20033;-82
2024/01/15 03:31:52;;;;;;;140.40;59.03;;;;;;;-142.57;100.00;55450.50;5031863;28;20086;-83
2024/01/15 03:34:18;;;;;;;139.20;60.55;;;;;;;-142.57;100.00;55474.72;5031585;28;20048;-84
2024/01/15 03:36:43;;;;;;;137.05;61.17;;;;;;;-142.57;100.00;55486.84;5031488;28;20079;-84
2024/01/15 03:39:09;;;;;;;130.18;59.33;;;;;;;-142.57;100.00;55486.84;5031314;28;20200;-82
2024/01/15 03:41:34;;;;;;;125.72;57.17;;;;;;;-142.57;100.00;55474.72;5029729;28;20057;-83
2024/01/15 03:44:01;;;;;;;121.43;56.88;;;;;;;-142.57;100.00;55472.72;5027336;28;20056;-82
2024/01/15 03:46:26;;;;;;;108.00;54.22;;;;;;;-142.57;100.00;55454.53;5010561;28;20067;-82
2024/01/15 03:48:52;;;;;;;114.55;54.00;;;;;;;-142.57;100.00;55418.16;5027792;28;20040;-84
2024/01/15 03:51:18;;;;;;;120.13;55.20;;;;;;;-142.57;100.00;55422.22;5028218;28;20414;-82
2024/01/15 03:53:44;;;;;;;115.70;56.25;;;;;;;-142.57;100.00;55418.16;5026712;28;20124;-82
2024/01/15 03:56:09;;;;;;;105.28;52.83;;;;;;;-142.57;100.00;55436.34;5031174;28;20040;-84
2024/01/15 03:58:35;;;;;;;104.90;52.63;;;;;;;-142.57;100.00;55418.16;5028975;28;20074;-82
2024/01/15 04:01:00;;;;;;;108.40;52.92;;;;;;;-142.57;100.00;55422.22;5030465;28;20060;-82
2024/01/15 04:03:26;;;;;;;113.07;54.33;;;;;;;-142.57;100.00;55434.31;5029780;28;20119;-84
2024/01/15 04:05:51;;;;;;;106.18;52.90;;;;;;;-142.57;100.00;55476.75;5027916;28;20702;-81
2024/01/15 04:08:17;;;;;;;106.88;53.60;;;;;;;-142.57;100.00;55466.66;5028752;28;20033;-83
2024/01/15 04:10:42;;;;;;;110.85;53.03;;;;;;;-142.57;100.00;55402.00;5029575;28;20044;-84
2024/01/15 04:13:10;;;;;;;105.25;50.75;;;;;;;-142.57;100.00;55430.28;5030424;28;20136;-85
2024/01/15 04:15:36;;;;;;;100.35;51.50;;;;;;;-142.57;100.00;55448.47;5030168;28;20072;-83
2024/01/15 04:18:02;;;;;;;108.43;51.78;;;;;;;-142.57;100.00;55418.16;5031570;28;20029;-81
2024/01/15 04:20:28;;;;;;;99.38;49.90;;;;;;;-142.57;100.00;55424.22;5028904;28;20505;-83
2024/01/15 04:22:53;;;;;;;98.88;50.88;;;;;;;-142.57;100.00;55450.50;5030131;28;20037;-81
2024/01/15 04:25:19;;;;;;;100.80;49.67;;;;;;;-142.57;100.00;55450.50;5030696;28;20080;-83
2024/01/15 04:27:45;;;;;;;100.50;49.90;;;;;;;-142.57;100.00;55397.97;5028507;28;20041;-83
2024/01/15 04:30:11;;;;;;;92.95;49.85;;;;;;;-142.57;100.00;55460.59;5028855;28;20056;-84
2024/01/15 04:32:37;;;;;;;94.07;49.42;;;;;;;-142.57;100.00;55414.13;5029461;28;20037;-85
2024/01/15 04:35:03;;;;;;;98.55;49.60;;;;;;;-142.57;100.00;55438.38;5031341;28;20651;-83
2024/01/15 04:37:28;;;;;;;99.22;49.40;;;;;;;-142.57;100.00;55430.28;5030040;28;20141;-82
2024/01/15 04:39:54;;;;;;;94.85;48.80;;;;;;;-142.57;100.00;55432.31;5030638;28;20051;-83
2024/01/15 04:42:23;;;;;;;97.50;49.17;;;;;;;-142.57;100.00;55484.84;5028672;28;20919;-83
2024/01/15 04:44:49;;;;;;;92.88;49.65;;;;;;;-142.57;100.00;55406.03;5036253;28;20116;-83
2024/01/15 04:47:14;;;;;;;99.03;50.08;;;;;;;-142.57;100.00;55422.22;5032783;28;20074;-81
2024/01/15 04:49:40;;;;;;;100.63;50.92;;;;;;;-142.57;100.00;55397.97;5032720;28;20119;-84
2024/01/15 04:52:06;;;;;;;96.68;49.10;;;;;;;-142.57;100.00;55389.88;5034085;28;20033;-83
2024/01/15 04:54:31;;;;;;;97.35;51.10;;;;;;;-142.57;100.00;55397.97;5014549;28;20068;-84
2024/01/15 04:56:57;;;;;;;98.28;50.78;;;;;;;-142.57;100.00;55412.09;5032911;28;20036;-83
2024/01/15 04:59:22;;;;;;;101.53;51.90;;;;;;;-142.57;100.00;55418.16;5030883;28;20041;-83
2024/01/15 05:01:48;;;;;;;94.05;49.35;;;;;;;-142.57;100.00;55440.38;5034697;28;20025;-83
2024/01/15 05:04:14;;;;;;;95.85;49.85;;;;;;;-142.57;100.00;55438.38;5032267;28;21605;-83
2024/01/15 05:06:40;;;;;;;92.32;48.00;;;;;;;-142.57;100.00;55430.28;5035673;28;20041;-84
2024/01/15 05:09:05;;;;;;;87.72;46.22;;;;;;;-142.57;100.00;55418.16;5033679;28;20485;-82
2024/01/15 05:11:31;;;;;;;86.07;46.17;;;;;;;-142.57;100.00;55454.53;5034788;28;20041;-82
2024/01/15 05:13:56;;;;;;;83.10;45.97;;;;;;;-142.57;100.00;55436.34;5033999;28;20116;-82
2024/01/15 05:16:22;;;;;;;85.18;44.58;;;;;;;-142.57;100.00;55470.69;5034655;28;20033;-82
2024/01/15 05:18:48;;;;;;;88.63;44.88;;;;;;;-142.57;100.00;55424.22;5016264;28;20036;-83
2024/01/15 05:21:13;;;;;;;81.82;44.25;;;;;;;-142.57;100.00;55450.50;5031267;28;20044;-82
2024/01/15 05:23:39;;;;;;;79.20;44.42;;;;;;;-142.57;100.00;55446.44;5035256;28;20108;-82
2024/01/15 05:26:04;;;;;;;78.22;43.72;;;;;;;-142.57;100.00;55442.41;5034766;28;20045;-83
2024/01/15 05:28:30;;;;;;;82.30;44.22;;;;;;;-142.57;100.00;55422.22;5029785;28;20474;-83
2024/01/15 05:30:55;;;;;;;78.53;43.85;;;;;;;-142.57;100.00;55478.78;5036588;28;20059;-82
2024/01/15 05:33:22;;;;;;;83.20;45.53;;;;;;;-142.57;100.00;55440.38;5039689;28;20671;-81
2024/01/15 05:35:50;;;;;;;86.10;44.53;;;;;;;-142.57;100.00;55480.78;5039557;28;20029;-84
2024/01/15 05:38:16;;;;;;;85.88;44.50;;;;;;;-142.57;100.00;55434.31;5043250;28;20078;-78
2024/01/15 05:40:41;;;;;;;80.85;44.45;;;;;;;-142.57;100.00;55436.34;5058693;28;20033;-79
2024/01/15 05:43:07;;;;;;;82.35;44.97;;;;;;;-142.57;100.00;55418.16;5062019;28;20020;-77
2024/01/15 05:45:34;;;;;;;87.88;45.85;;;;;;;-142.57;100.00;55418.16;5044110;28;20132;-78
2024/01/15 05:48:00;;;;;;;87.00;45.65;;;;;;;-142.57;100.00;55444.44;5034406;28;20171;-78
2024/01/15 05:50:25;;;;;;;87.90;47.03;;;;;;;-142.57;100.00;55458.56;5033869;28;20037;-78
2024/01/15 05:52:51;;;;;;;94.60;49.00;;;;;;;-142.57;100.00;55464.63;5033005;28;20041;-79
2024/01/15 05:55:18;;;;;;;92.72;49.15;;;;;;;-142.57;100.00;55426.25;5032097;28;20037;-81
2024/01/15 05:57:45;;;;;;;93.97;49.65;;;;;;;-142.57;100.00;55446.44;5032535;28;20083;-77
2024/01/15 06:00:11;;;;;;;101.90;51.53;;;;;;;-142.57;100.00;55464.63;5030289;28;20156;-81
2024/01/15 06:02:39;;;;;;;103.10;51.65;;;;;;;-142.57;100.00;55446.44;5030946;28;20033;-77
2024/01/15 06:05:06;;;;;;;103.38;51.75;;;;;;;-142.57;100.00;55462.63;5032363;28;20060;-82
2024/01/15 06:07:33;;;;;;;109.22;52.13;;;;;;;-142.57;100.00;55494.94;5033817;28;20533;-79
2024/01/15 06:09:59;;;;;;;107.97;53.50;;;;;;;-142.57;100.00;55452.50;5035282;28;20044;-83
2024/01/15 06:12:24;;;;;;;104.57;52.47;;;;;;;-142.57;100.00;55478.78;5045325;28;20104;-87
2024/01/15 06:14:50;;;;;;;104.70;52.45;;;;;;;-142.57;100.00;55474.72;5046457;28;20083;-87
2024/01/15 06:17:16;;;;;;;99.93;51.30;;;;;;;-142.57;100.00;55446.44;5047303;28;20045;-84
2024/01/15 06:19:42;;;;;;;104.35;51.47;;;;;;;-142.57;100.00;55507.06;5042437;28;20426;-82
2024/01/15 06:22:07;;;;;;;105.82;53.35;;;;;;;-142.57;100.00;55509.09;5042600;28;20033;-82
2024/01/15 06:24:33;;;;;;;104.75;53.50;;;;;;;-142.57;100.00;55470.69;5046037;28;20029;-80
2024/01/15 06:26:59;;;;;;;103.95;53.08;;;;;;;-142.57;100.00;55466.66;5045058;28;20041;-81
2024/01/15 06:29:27;;;;;;;106.88;53.20;;;;;;;-142.57;100.00;55486.84;5040610;28;20052;-80
2024/01/15 06:31:52;;;;;;;109.80;53.55;;;;;;;-142.57;100.00;55472.72;5030049;28;20395;-83
2024/01/15 06:34:18;;;;;;;102.63;52.95;;;;;;;-142.57;100.00;55519.19;5042467;28;20048;-82
2024/01/15 06:36:43;;;;;;;102.85;52.80;;;;;;;-142.57;100.00;55458.56;5048119;28;20047;-81
2024/01/15 06:39:10;;;;;;;102.38;50.40;;;;;;;-142.57;100.00;55472.72;5052371;28;20044;-84
2024/01/15 06:41:41;;;;;;;103.25;53.08;;;;;;;-142.57;100.00;55446.44;5052770;28;20033;-84
2024/01/15 06:44:10;;;;;;;106.45;53.17;;;;;;;-142.57;100.00;55474.72;5052324;28;20044;-82
2024/01/15 06:46:36;;;;;;;118.75;53.95;;;;;;;-142.57;100.00;55486.84;5057484;28;20044;-88
2024/01/15 06:49:06;;;;;;;114.63;54.15;;;;;;;-142.57;100.00;55490.91;5060111;28;20556;-83
2024/01/15 06:51:35;;;;;;;115.40;52.38;;;;;;;-142.57;100.00;55490.91;5045853;28;20040;-84
2024/01/15 06:54:01;;;;;;;108.88;51.90;;;;;;;-142.57;100.00;55474.72;5049162;28;20093;-86
2024/01/15 06:56:26;;;;;;;109.32;51.70;;;;;;;-142.57;100.00;55468.69;5039400;28;20486;-84
2024/01/15 06:58:54;;;;;;;110.03;53.70;;;;;;;-142.57;100.00;55458.56;5052581;28;20040;-83
2024/01/15 07:01:20;;;;;;;113.07;54.08;;;;;;;-142.57;100.00;55474.72;5046167;28;20072;-82
2024/01/15 07:03:46;;;;;;;112.78;53.67;;;;;;;-142.57;100.00;55462.63;5049364;28;20072;-81
2024/01/15 07:06:12;;;;;;;106.25;53.90;;;;;;;-142.57;100.00;55494.94;5053997;28;20581;-81
2024/01/15 07:08:38;;;;;;;105.75;52.22;;;;;;;-142.57;100.00;55507.06;5045383;28;20098;-84
2024/01/15 07:11:05;;;;;;;112.10;53.13;;;;;;;-142.57;100.00;55490.91;5054241;28;20082;-86
2024/01/15 07:13:31;;;;;;;110.95;52.70;;;;;;;-142.57;100.00;55490.91;5055413;28;20692;-83
2024/01/15 07:15:56;;;;;;;100.75;50.13;;;;;;;-142.57;100.00;55444.44;5056897;28;20049;-89
2024/01/15 07:18:23;;;;;;;108.70;52.97;;;;;;;-142.57;100.00;55478.78;5056449;28;20023;-88
2024/01/15 07:20:49;;;;;;;110.68;53.05;;;;;;;-142.57;100.00;55484.84;5038307;28;20402;-83
2024/01/15 07:23:14;;;;;;;111.38;53.17;;;;;;;-142.57;100.00;55474.72;5054506;28;20040;-86
2024/01/15 07:25:40;;;;;;;112.50;53.53;;;;;;;-142.57;100.00;55458.56;5054012;28;20049;-88
2024/01/15 07:28:05;;;;;;;117.47;55.35;;;;;;;-142.57;100.00;55442.41;5055503;28;20041;-87
2024/01/15 07:30:31;;;;;;;115.60;53.97;;;;;;;-142.57;100.00;55442.41;5055359;28;20037;-85
2024/01/15 07:32:59;;;;;;;118.70;56.20;;;;;;;-142.57;100.00;55486.84;5056150;28;20127;-88
2024/01/15 07:35:25;;;;;;;121.75;56.55;;;;;;;-142.57;100.00;55517.16;5054135;28;20435;-88
2024/01/15 07:37:51;;;;;;;115.57;56.35;;;;;;;-142.57;100.00;55517.16;5056175;28;20473;-89
2024/01/15 07:40:19;;;;;;;109.82;53.22;;;;;;;-142.57;100.00;55537.38;5056226;28;20033;-87
2024/01/15 07:42:45;;;;;;;109.43;52.47;;;;;;;-142.57;100.00;55543.44;5055633;28;20101;-89
2024/01/15 07:45:11;;;;;;;112.07;53.13;;;;;;;-142.57;100.00;55563.63;5055315;28;20120;-89
2024/01/15 07:47:37;;;;;;;106.90;52.03;;;;;;;-142.57;100.00;55543.44;5051811;28;20592;-82
2024/01/15 07:50:03;;;;;;;105.22;52.50;;;;;;;-142.57;100.00;55523.22;5054531;28;20588;-87
2024/01/15 07:52:28;;;;;;;102.30;50.10;;;;;;;-142.57;100.00;55549.50;5055460;28;20112;-88
2024/01/15 07:54:54;;;;;;;102.50;50.13;;;;;;;-142.57;100.00;55543.44;5055836;28;20035;-88
2024/01/15 08:01:07;;;;;;;110.07;53.20;;;;;;;-142.57;100.00;55555.56;5076493;28;20055;-83
2024/01/15 08:03:33;;;;;;;106.30;51.72;;;;;;;-142.57;100.00;55559.59;5070667;28;20041;-84
2024/01/15 08:05:59;;;;;;;106.20;52.22;;;;;;;-142.57;100.00;55553.53;5055163;28;20040;-82
2024/01/15 08:08:26;;;;;;;101.90;52.00;;;;;;;-142.57;100.00;55579.81;5054938;28;20039;-88
2024/01/15 08:10:54;;;;;;;109.38;51.67;;;;;;;-142.57;100.00;55559.59;5055006;28;20522;-84
2024/01/15 08:13:20;;;;;;;105.57;52.97;;;;;;;-142.57;100.00;55555.56;5054457;28;20426;-86
2024/01/15 08:15:46;;;;;;;99.85;51.30;;;;;;;-142.57;100.00;55567.69;5053916;28;20029;-82
2024/01/15 08:18:12;;;;;;;105.20;52.30;;;;;;;-142.57;100.00;55555.56;5054635;28;20060;-86
2024/01/15 08:20:37;;;;;;;103.55;52.05;;;;;;;-142.57;100.00;55579.81;5055972;28;20037;-85
2024/01/15 08:23:06;;;;;;;96.90;51.20;;;;;;;-142.57;100.00;55579.81;5058493;28;20043;-85
2024/01/15 08:25:31;;;;;;;102.75;50.88;;;;;;;-142.57;100.00;55553.53;5055239;28;20463;-84
2024/01/15 08:27:59;;;;;;;94.47;49.15;;;;;;;-142.57;100.00;55589.91;5054348;28;20090;-87
2024/01/15 08:30:27;;;;;;;105.75;50.72;;;;;;;-142.57;100.00;55571.72;5054588;28;20025;-82
2024/01/15 08:32:57;;;;;;;103.35;53.47;;;;;;;-142.57;100.00;55579.81;5053312;28;20041;-81
2024/01/15 08:35:22;;;;;;;109.88;51.83;;;;;;;-142.57;100.00;55620.22;5053387;28;20025;-87
2024/01/15 08:37:52;;;;;;;98.00;50.15;;;;;;;-142.57;100.00;55575.75;5053812;28;20028;-84
2024/01/15 08:40:18;;;;;;;93.55;47.17;;;;;;;-142.57;100.00;55622.22;5052647;28;20119;-83
2024/01/15 08:42:45;;;;;;;115.30;53.53;;;;;;;-142.57;100.00;55551.50;5053486;28;20056;-82
2024/01/15 08:45:11;;;;;;;104.15;53.22;;;;;;;-142.57;100.00;55587.88;5054513;28;20097;-81
2024/01/15 08:47:38;;;;;;;107.93;52.28;;;;;;;-142.57;100.00;55595.97;5035454;28;20061;-88
2024/01/15 08:50:04;;;;;;;102.32;51.60;;;;;;;-142.57;100.00;55652.53;5052336;28;20557;-85
2024/01/15 08:52:30;;;;;;;99.97;49.38;;;;;;;-142.57;100.00;55628.28;5054657;28;20041;-86
2024/01/15 08:54:57;;;;;;;113.25;55.08;;;;;;;-142.57;100.00;55612.13;5056171;28;20048;-84
2024/01/15 08:57:23;;;;;;;107.00;54.13;;;;;;;-142.57;100.00;55602.03;5057444;28;20316;-84
2024/01/15 08:59:48;;;;;;;108.22;53.75;;;;;;;-142.57;100.00;55620.22;5056662;28;20485;-83
2024/01/15 09:02:14;;;;;;;99.35;52.03;;;;;;;-142.57;100.00;55632.34;5052033;28;20029;-81
2024/01/15 09:04:43;;;;;;;99.55;50.35;;;;;;;-142.57;100.00;55620.22;5052165;28;20104;-82
2024/01/15 09:07:08;;;;;;;103.55;52.53;;;;;;;-142.57;100.00;55658.59;5053486;28;20542;-88
2024/01/15 09:09:34;;;;;;;98.82;50.17;;;;;;;-142.57;100.00;55616.16;5051603;28;20127;-82
2024/01/15 09:12:00;;;;;;;97.35;50.38;;;;;;;-142.57;100.00;55640.41;5054621;28;20116;-85
2024/01/15 09:14:29;;;;;;;103.82;51.58;;;;;;;-142.57;100.00;55648.50;5053807;28;20064;-85
2024/01/15 09:16:54;;;;;;;104.45;51.50;;;;;;;-142.57;100.00;55614.16;5054040;28;20037;-85
2024/01/15 09:19:20;;;;;;;97.82;50.50;;;;;;;-142.57;100.00;55682.84;5054813;28;20100;-85
2024/01/15 09:21:45;;;;;;;98.38;52.33;;;;;;;-142.57;100.00;55670.72;5053055;28;20070;-86
2024/01/15 09:24:11;;;;;;;93.88;48.22;;;;;;;-142.57;100.00;55680.81;5052368;28;20052;-85
2024/01/15 09:26:36;;;;;;;106.50;52.45;;;;;;;-142.57;100.00;55672.75;5051920;28;20394;-83
2024/01/15 09:29:02;;;;;;;96.35;51.17;;;;;;;-142.57;100.00;55652.53;5053122;28;20044;-83
2024/01/15 09:31:28;;;;;;;95.30;50.47;;;;;;;-142.57;100.00;55640.41;5056497;28;20045;-83
2024/01/15 09:33:58;;;;;;;99.13;50.78;;;;;;;-142.57;100.00;55652.53;5054938;28;20040;-85
2024/01/15 09:36:24;;;;;;;102.90;51.35;;;;;;;-142.57;100.00;55684.88;5055876;28;20037;-87
2024/01/15 09:38:49;;;;;;;96.28;51.50;;;;;;;-142.57;100.00;55676.78;5056685;28;20037;-85
2024/01/15 09:41:25;;;;;;;99.03;51.17;;;;;;;-142.57;100.00;55668.69;5055436;28;20377;-86
2024/01/15 09:43:57;;;;;;;92.28;49.72;;;;;;;-142.57;100.00;55725.28;5055034;28;20029;-86
2024/01/15 09:46:22;;;;;;;70.88;35.45;;;;;;;-142.57;100.00;55745.47;5055941;28;20102;-82
2024/01/15 09:48:50;;;;;;;101.95;49.53;;;;;;;-142.57;100.00;55775.78;5057217;28;20044;-84
2024/01/15 09:53:42;;;;;;;87.83;46.90;;;;;;;-142.57;100.00;55765.69;5056202;28;20037;-86
2024/01/15 09:56:10;;;;;;;97.65;49.70;;;;;;;-142.57;100.00;55798.00;5057322;28;20041;-84
2024/01/15 09:58:45;;;;;;;92.70;48.83;;;;;;;-142.57;100.00;55793.97;5055883;28;20076;-84
2024/01/15 10:01:12;;;;;;;88.22;46.45;;;;;;;-142.57;100.00;55834.38;5055726;28;20039;-82
2024/01/15 10:03:39;;;;;;;87.10;47.70;;;;;;;-142.57;100.00;55814.19;5056761;28;20029;-85
2024/01/15 10:06:17;;;;;;;93.00;47.13;;;;;;;-142.57;100.00;55852.56;5058132;28;20045;-85
2024/01/15 10:08:48;;;;;;;91.75;49.05;;;;;;;-142.57;100.00;55836.41;5038274;28;20039;-82
2024/01/15 10:11:13;;;;;;;91.38;47.00;;;;;;;-142.57;100.00;55810.13;5056895;28;20056;-83
2024/01/15 10:13:40;;;;;;;88.55;47.10;;;;;;;-142.57;100.00;55846.50;5038753;28;20112;-83
2024/01/15 10:16:09;;;;;;;90.82;46.53;;;;;;;-142.57;100.00;55854.59;5056015;28;20037;-85
2024/01/15 10:18:35;;;;;;;89.55;47.80;;;;;;;-142.57;100.00;55826.31;5057224;28;20033;-88
2024/01/15 10:21:08;;;;;;;87.07;46.67;;;;;;;-142.57;100.00;55870.75;5062164;28;20037;-85
2024/01/15 10:23:33;;;;;;;90.25;45.80;;;;;;;-142.57;100.00;55852.56;5076851;28;20032;-86
2024/01/15 10:25:59;;;;;;;89.75;47.85;;;;;;;-142.57;100.00;55842.47;5078047;28;20025;-83
2024/01/15 10:28:31;;;;;;;82.53;47.25;;;;;;;-142.57;100.00;55874.78;5058269;28;20108;-86
2024/01/15 10:31:01;;;;;;;83.55;46.63;;;;;;;-142.57;100.00;55878.84;5056525;28;20395;-85
2024/01/15 10:33:27;;;;;;;80.75;46.17;;;;;;;-142.57;100.00;55901.06;5055685;28;20033;-83
2024/01/15 10:35:57;;;;;;;93.72;46.30;;;;;;;-142.57;100.00;55860.66;5056799;28;20052;-88
2024/01/15 10:38:26;;;;;;;89.80;47.10;;;;;;;-142.57;100.00;55874.78;5057396;28;20170;-85
2024/01/15 10:40:55;;;;;;;89.03;47.28;;;;;;;-142.57;100.00;55888.94;5054088;28;20187;-84
2024/01/15 10:43:22;;;;;;;88.22;49.97;;;;;;;-142.57;100.00;55876.81;5054681;28;20174;-84
2024/01/15 10:45:51;;;;;;;88.60;47.72;;;;;;;-142.57;100.00;55874.78;5054781;28;20045;-86
2024/01/15 10:48:19;;;;;;;85.80;46.83;;;;;;;-142.57;100.00;55878.84;5054795;28;20036;-87
2024/01/15 10:50:45;;;;;;;90.22;47.83;;;;;;;-142.57;100.00;55884.91;5059666;28;20063;-85
2024/01/15 10:53:14;;;;;;;85.38;46.30;;;;;;;-142.57;100.00;55870.75;5057463;28;20497;-84